Weather reports worldwide

Advertisment
Exeter Airport No. 2, United Kingdom (3844): temperature & dewpoint: 17.09.2018 02:00:00 - 23.09.2018 02:00:00 (BST)Exeter Airport No. 2, United Kingdom (3844): wind speed & gusts: 17.09.2018 02:00:00 - 23.09.2018 02:00:00 (BST)Exeter Airport No. 2, United Kingdom (3844): wind direction: 17.09.2018 02:00:00 - 23.09.2018 02:00:00 (BST)Exeter Airport No. 2, United Kingdom (3844): reduced air pressure: 17.09.2018 02:00:00 - 23.09.2018 02:00:00 (BST)Exeter Airport No. 2, United Kingdom (3844): sunshine duration: 17.09.2018 02:00:00 - 23.09.2018 02:00:00 (BST)Exeter Airport No. 2, United Kingdom (3844): precipitation: 17.09.2018 02:00:00 - 23.09.2018 02:00:00 (BST)
Date & Time tt [°C] td [°C] ff [km/h] ff [kn] fx [km/h] fx [kn] dd ppp [hPa] sd [min] rr [mm]
23.09.2018 02:00:00 11,2 10,8 4 2 - - NNE 1013,2 0 0,0
23.09.2018 01:00:00 11,2 10,7 5 3 - - NNE 1013,0 - 0,0
23.09.2018 00:00:00 11,2 10,7 5 3 - - NE 1012,6 0 0,0
22.09.2018 23:00:00 11,1 10,6 8 4 - - NNE 1012,3 0 0,2
22.09.2018 22:00:00 11,1 10,4 8 4 - - NE 1011,5 0 0,2
22.09.2018 21:00:00 11,2 10,3 11 6 - - NE 1011,1 0 0,0
22.09.2018 20:00:00 11,4 10,6 11 6 - - NE 1010,8 0 0,0
22.09.2018 19:00:00 11,6 11,0 11 6 - - NE 1010,1 0 0,4
22.09.2018 18:00:00 12,2 11,7 11 6 - - NE 1010,1 0 2,4
22.09.2018 17:00:00 12,8 12,0 18 10 - - E 1010,6 0 0,8
22.09.2018 16:00:00 12,7 12,0 21 11 - - E 1011,9 0 1,4
22.09.2018 15:00:00 12,0 11,2 24 13 - - SE 1013,1 0 2,4
22.09.2018 14:00:00 11,3 10,9 11 6 - - E 1014,5 0 3,6
22.09.2018 13:00:00 10,6 10,0 18 10 - - E 1016,1 0 3,6
22.09.2018 12:00:00 10,4 9,6 15 8 - - E 1017,5 0 1,8
22.09.2018 11:00:00 10,4 9,0 9 5 - - ENE 1019,1 0 0,8
22.09.2018 10:00:00 10,6 8,9 8 4 - - SSE 1019,4 0 0,8
22.09.2018 09:00:00 11,3 9,5 8 4 - - SSE 1019,5 0 0,2
22.09.2018 08:00:00 10,8 8,9 4 2 - - SW 1019,8 0 0,2
22.09.2018 07:00:00 11,4 7,6 11 6 - - WSW 1019,7 0 0,0
22.09.2018 06:00:00 11,5 8,3 9 5 - - SW 1019,5 0 0,0
22.09.2018 05:00:00 11,5 8,0 13 7 - - SW 1019,6 0 0,0
22.09.2018 04:00:00 11,7 8,1 13 7 - - SSW 1019,8 0 0,0
22.09.2018 03:00:00 11,8 8,2 11 6 - - SSW 1020,1 0 0,0
22.09.2018 02:00:00 11,4 8,3 11 6 - - SW 1019,9 0 0,0
22.09.2018 01:00:00 11,2 8,4 11 6 - - SSW 1020,0 - 0,0
22.09.2018 00:00:00 11,2 8,1 11 6 - - SSW 1020,1 0 0,0
21.09.2018 23:00:00 11,7 8,3 11 6 - - SW 1019,7 0 0,0
21.09.2018 22:00:00 11,6 8,1 13 7 - - WSW 1019,3 0 0,0
21.09.2018 21:00:00 12,0 7,5 13 7 - - W 1018,9 0 0,0
21.09.2018 20:00:00 12,5 7,7 16 9 - - W 1018,0 0 0,0
21.09.2018 19:00:00 13,7 7,4 22 12 - - W 1017,2 42 0,0
21.09.2018 18:00:00 15,0 7,1 24 13 - - W 1016,3 60 0,0
21.09.2018 17:00:00 15,2 7,8 28 15 50 27 W 1015,9 18 0,0
21.09.2018 16:00:00 15,9 8,2 28 15 59 32 W 1015,4 24 0,0
21.09.2018 15:00:00 16,7 5,6 34 18 70 38 W 1014,4 54 0,0
21.09.2018 14:00:00 16,6 5,7 34 18 63 34 W 1013,7 54 0,0
21.09.2018 13:00:00 16,1 5,7 48 26 67 36 W 1012,7 54 0,0
21.09.2018 12:00:00 15,2 6,7 35 19 59 32 W 1012,1 60 0,0
21.09.2018 11:00:00 13,9 7,4 29 16 48 26 W 1011,8 60 0,2
21.09.2018 10:00:00 13,0 7,2 28 15 - - W 1011,1 54 0,0
21.09.2018 09:00:00 12,1 6,3 24 13 - - W 1010,2 60 0,0
21.09.2018 08:00:00 9,9 6,4 18 10 - - WSW 1009,2 36 0,0
21.09.2018 07:00:00 10,2 6,0 22 12 - - W 1008,2 0 0,0
21.09.2018 06:00:00 10,0 7,2 16 9 - - W 1007,1 0 0,0
21.09.2018 05:00:00 10,2 8,3 21 11 46 25 W 1006,2 0 0,0
21.09.2018 04:00:00 11,2 8,4 28 15 48 26 WNW 1004,6 0 0,0
21.09.2018 03:00:00 12,0 8,6 22 12 - - W 1002,9 0 0,0
21.09.2018 02:00:00 12,9 9,4 22 12 - - W 1001,6 0 0,0
21.09.2018 01:00:00 14,0 10,4 18 10 46 25 W 1000,9 - 0,0
21.09.2018 00:00:00 15,7 12,6 24 13 55 30 W 999,7 0 0,2
20.09.2018 23:00:00 17,7 15,4 37 20 67 36 SW 998,4 0 1,0
20.09.2018 22:00:00 17,8 16,4 35 19 59 32 SSW 998,9 0 4,4
20.09.2018 21:00:00 17,7 16,5 34 18 54 29 SSW 1000,7 0 1,4
20.09.2018 20:00:00 18,0 16,4 31 17 61 33 SSW 1002,1 0 0,2
20.09.2018 19:00:00 18,2 16,3 37 20 54 29 SSW 1003,4 0 0,2
20.09.2018 18:00:00 18,5 16,2 26 14 50 27 SSW 1004,7 0 0,0
20.09.2018 17:00:00 18,4 16,2 26 14 48 26 SSW 1006,2 0 0,0
20.09.2018 16:00:00 18,7 15,7 31 17 55 30 SSW 1007,1 0 0,0
20.09.2018 15:00:00 18,3 16,0 34 18 59 32 SW 1007,7 0 0,0
20.09.2018 14:00:00 19,1 15,5 35 19 55 30 SSW 1008,0 0 0,0
20.09.2018 13:00:00 18,7 15,7 34 18 48 26 SSW 1008,8 0 0,0
20.09.2018 12:00:00 18,1 15,8 26 14 - - SSW 1009,4 0 0,0
20.09.2018 11:00:00 17,4 16,0 26 14 - - SSW 1010,3 0 0,0
20.09.2018 10:00:00 17,3 15,9 21 11 - - SSW 1010,6 0 0,0
20.09.2018 09:00:00 17,3 15,7 16 9 - - SSW 1010,9 0 0,0
20.09.2018 08:00:00 17,3 15,8 18 10 - - SSW 1011,0 0 0,0
20.09.2018 07:00:00 17,0 15,9 18 10 - - SSW 1010,9 0 0,2
20.09.2018 06:00:00 17,0 15,7 21 11 - - S 1011,2 0 0,0
20.09.2018 05:00:00 16,8 15,5 18 10 - - SSW 1011,3 0 0,0
20.09.2018 04:00:00 17,1 15,4 16 9 - - SSW 1011,8 0 0,0
20.09.2018 03:00:00 17,2 15,4 18 10 - - SSW 1012,0 0 0,0
20.09.2018 02:00:00 17,0 15,8 26 14 - - SSW 1012,4 0 0,0
20.09.2018 01:00:00 15,0 14,4 9 5 - - S 1012,8 - 0,2
20.09.2018 00:00:00 14,7 14,1 5 3 - - SSW 1013,6 0 0,2
19.09.2018 23:00:00 15,1 13,8 11 6 - - SSW 1014,3 0 0,0
19.09.2018 22:00:00 15,7 13,5 13 7 - - SSW 1014,6 0 0,0
19.09.2018 21:00:00 15,9 13,1 11 6 - - SW 1014,4 0 0,0
19.09.2018 20:00:00 15,9 13,5 11 6 - - S 1014,1 0 0,0
19.09.2018 19:00:00 15,6 14,1 15 8 - - WNW 1014,3 0 0,2
19.09.2018 18:00:00 17,5 16,0 22 12 - - SW 1013,4 0 0,2
19.09.2018 17:00:00 19,1 15,3 28 15 - - SW 1012,8 0 0,0
19.09.2018 16:00:00 19,5 15,0 28 15 - - SSW 1012,4 6 0,0
19.09.2018 15:00:00 18,7 15,6 26 14 48 26 SW 1012,4 0 0,0
19.09.2018 14:00:00 20,2 14,1 34 18 50 27 WSW 1012,1 0 0,0
19.09.2018 13:00:00 22,0 12,7 41 22 61 33 SW 1011,9 54 0,0
19.09.2018 12:00:00 21,0 13,6 35 19 55 30 SW 1011,7 18 0,0
19.09.2018 11:00:00 19,8 14,2 29 16 52 28 SW 1011,3 24 0,0
19.09.2018 10:00:00 19,2 14,1 29 16 - - SW 1011,0 0 0,0
19.09.2018 09:00:00 18,6 14,4 29 16 - - SSW 1010,8 0 0,0
19.09.2018 08:00:00 18,0 14,7 24 13 - - SSW 1010,7 0 0,0
19.09.2018 07:00:00 17,2 14,1 22 12 - - SSW 1010,6 0 0,0
19.09.2018 06:00:00 17,1 14,6 24 13 - - SSW 1010,4 0 0,0
19.09.2018 05:00:00 16,7 14,0 28 15 - - SSW 1010,6 0 0,0
19.09.2018 04:00:00 16,7 14,4 26 14 - - SSW 1010,7 0 0,0
19.09.2018 03:00:00 16,7 14,5 21 11 - - SSW 1011,2 0 0,0
19.09.2018 02:00:00 16,8 15,1 18 10 - - SSW 1011,3 0 0,0
19.09.2018 01:00:00 17,4 15,7 15 8 - - SSW 1011,2 - 0,0
19.09.2018 00:00:00 17,2 15,6 22 12 - - SSW 1011,3 0 0,0
18.09.2018 23:00:00 18,0 15,0 24 13 - - SSW 1011,0 0 0,0
18.09.2018 22:00:00 18,0 14,9 21 11 - - SSW 1011,2 0 0,0
18.09.2018 21:00:00 18,0 14,8 22 12 - - SSW 1011,3 0 0,0
18.09.2018 20:00:00 18,0 14,9 21 11 - - SSW 1011,3 0 0,0
18.09.2018 19:00:00 18,1 15,0 24 13 - - SW 1011,2 0 0,0
18.09.2018 18:00:00 18,7 15,0 24 13 - - SSW 1011,0 0 0,0
18.09.2018 17:00:00 19,3 14,8 26 14 - - SW 1010,9 0 0,0
18.09.2018 16:00:00 19,6 15,0 26 14 - - SW 1010,8 0 0,0
18.09.2018 15:00:00 19,4 14,7 26 14 - - SW 1010,8 0 0,0
18.09.2018 14:00:00 19,7 14,8 28 15 46 25 SW 1010,3 0 0,0
18.09.2018 13:00:00 19,1 14,9 35 19 46 25 SW 1010,0 18 0,0
18.09.2018 12:00:00 19,7 14,1 31 17 46 25 WSW 1009,7 30 0,0
18.09.2018 11:00:00 19,8 13,5 28 15 - - SW 1008,9 42 0,0
18.09.2018 10:00:00 17,9 12,8 28 15 - - WSW 1008,4 0 0,0
18.09.2018 09:00:00 17,0 12,0 26 14 48 26 WSW 1007,5 0 0,0
18.09.2018 08:00:00 16,5 12,6 31 17 50 27 WSW 1006,3 0 0,0
18.09.2018 07:00:00 16,3 14,1 34 18 52 28 SW 1004,8 0 0,0
18.09.2018 06:00:00 17,0 14,7 37 20 55 30 SW 1003,9 0 0,0
18.09.2018 05:00:00 17,2 15,5 31 17 54 29 SSW 1003,2 0 0,0
18.09.2018 04:00:00 17,2 15,6 34 18 50 27 SSW 1002,8 0 0,0
18.09.2018 03:00:00 17,5 16,0 35 19 59 32 SSW 1002,9 0 0,0
18.09.2018 02:00:00 18,3 16,3 35 19 61 33 SSW 1003,1 0 0,0
18.09.2018 01:00:00 18,1 16,1 34 18 52 28 S 1003,7 - 0,0
18.09.2018 00:00:00 17,9 15,9 28 15 - - S 1004,4 0 0,0
17.09.2018 23:00:00 17,9 15,2 21 11 - - S 1005,3 0 0,0
17.09.2018 22:00:00 16,9 14,5 13 7 - - S 1006,4 0 0,0
17.09.2018 21:00:00 16,4 14,7 11 6 - - SSE 1007,3 0 0,0
17.09.2018 20:00:00 15,6 13,9 8 4 - - S 1007,8 18 0,0
17.09.2018 19:00:00 17,1 14,4 15 8 - - SSE 1008,0 60 0,0
17.09.2018 18:00:00 18,2 14,4 15 8 - - SSE 1008,9 60 0,0
17.09.2018 17:00:00 19,0 14,6 21 11 - - SSE 1009,4 54 0,0
17.09.2018 16:00:00 19,0 14,6 21 11 - - S 1010,7 18 0,0
17.09.2018 15:00:00 18,3 15,6 16 9 - - S 1011,8 0 0,0
17.09.2018 14:00:00 17,9 15,6 18 10 - - S 1012,6 0 0,0
17.09.2018 13:00:00 18,9 15,9 22 12 - - S 1013,2 0 0,0
17.09.2018 12:00:00 18,4 16,3 21 11 - - S 1013,8 0 0,0
17.09.2018 11:00:00 17,4 16,4 18 10 - - S 1014,5 0 0,0
17.09.2018 10:00:00 17,3 16,5 18 10 - - S 1014,8 0 0,0
17.09.2018 09:00:00 17,0 16,4 15 8 - - S 1014,9 0 0,2
17.09.2018 08:00:00 17,1 16,7 15 8 - - S 1015,1 0 0,0
17.09.2018 07:00:00 16,9 16,5 13 7 - - S 1014,9 0 0,0
17.09.2018 06:00:00 17,1 16,6 15 8 - - S 1015,1 0 0,0
17.09.2018 05:00:00 17,3 16,7 15 8 - - S 1015,5 0 0,0
17.09.2018 04:00:00 17,4 16,6 13 7 - - SSW 1015,8 0 0,0
17.09.2018 03:00:00 17,7 16,6 16 9 - - SSW 1015,9 0 0,0
17.09.2018 02:00:00 17,8 16,4 18 10 - - SSW 1016,0 0 0,0

tt = temperature
td = dewpoint
ff = wind speed
fx = gusts
dd = wind direction
ppp = reduced air pressure
sd = sunshine duration
rr = precipitation

Next stations